Time;durP1;ratioP1;P1;durP2;ratioP2;P2;SDS_P1;SDS_P2;PMS_P1;PMS_P2;Temp;Humidity;BMP_temperature;BMP_pressure;BME280_temperature;BME280_humidity;BME280_pressure;Samples;Min_cycle;Max_cycle;Signal;HPM_P1;HPM_P2
2023/12/17 00:00:22;;;;;;;14.47;10.43;;;;;;;4.01;69.26;98426.50;5022212;28;20204;-71
2023/12/17 00:02:48;;;;;;;12.90;10.87;;;;;;;4.19;69.19;98418.97;5024325;28;20236;-70
2023/12/17 00:05:13;;;;;;;12.93;10.10;;;;;;;4.32;68.16;98422.59;5028303;28;20191;-69
2023/12/17 00:07:40;;;;;;;12.77;10.53;;;;;;;4.22;68.44;98419.00;5027595;28;20179;-69
2023/12/17 00:10:06;;;;;;;12.60;11.07;;;;;;;4.24;68.64;98419.03;5027805;28;20190;-69
2023/12/17 00:12:31;;;;;;;13.13;9.83;;;;;;;4.28;68.91;98427.75;5025288;28;20441;-71
2023/12/17 00:14:57;;;;;;;11.23;10.13;;;;;;;4.30;68.47;98421.72;5028053;28;20433;-70
2023/12/17 00:17:23;;;;;;;14.53;11.20;;;;;;;4.22;68.80;98419.00;5028887;28;20747;-69
2023/12/17 00:19:48;;;;;;;13.30;11.00;;;;;;;4.05;68.52;98414.44;5027334;28;20210;-71
2023/12/17 00:22:13;;;;;;;15.40;9.67;;;;;;;3.73;69.42;98418.31;5023941;28;20257;-69
2023/12/17 00:24:39;;;;;;;13.53;10.70;;;;;;;3.72;69.78;98421.75;5026612;28;20172;-70
2023/12/17 00:27:04;;;;;;;13.83;9.40;;;;;;;3.92;69.33;98423.75;5015820;28;20184;-71
2023/12/17 00:29:29;;;;;;;14.03;9.70;;;;;;;4.00;68.18;98433.44;5022123;28;20203;-70
2023/12/17 00:31:55;;;;;;;19.20;10.33;;;;;;;4.05;68.45;98428.31;5026942;28;20207;-70
2023/12/17 00:34:20;;;;;;;17.90;9.97;;;;;;;4.04;68.01;98423.97;5026918;28;20195;-70
2023/12/17 00:36:45;;;;;;;19.03;9.90;;;;;;;3.73;69.20;98431.28;5027605;28;20258;-69
2023/12/17 00:39:11;;;;;;;13.10;10.40;;;;;;;3.40;69.75;98436.78;5026362;28;20200;-70
2023/12/17 00:41:36;;;;;;;14.37;10.77;;;;;;;3.36;70.21;98435.00;5023845;28;20195;-70
2023/12/17 00:44:02;;;;;;;18.50;10.60;;;;;;;3.73;69.89;98438.19;5026690;28;20218;-70
2023/12/17 00:46:27;;;;;;;13.00;9.80;;;;;;;3.70;70.02;98440.75;5024354;28;20627;-70
2023/12/17 00:48:52;;;;;;;14.00;9.90;;;;;;;3.73;69.12;98433.00;5026502;28;20176;-70
2023/12/17 00:51:18;;;;;;;10.40;8.90;;;;;;;3.72;69.47;98433.84;5025439;28;20282;-71
2023/12/17 00:53:43;;;;;;;14.60;9.87;;;;;;;3.74;69.44;98429.56;5028374;28;20773;-71
2023/12/17 00:56:09;;;;;;;19.70;10.43;;;;;;;3.85;69.12;98425.41;5025314;28;20275;-70
2023/12/17 00:58:35;;;;;;;15.83;11.13;;;;;;;3.73;70.22;98415.72;5025520;28;20240;-70
2023/12/17 01:01:01;;;;;;;14.20;10.27;;;;;;;3.53;70.81;98410.19;5024266;28;20461;-69
2023/12/17 01:03:27;;;;;;;15.73;10.50;;;;;;;3.55;70.50;98413.69;5025181;28;20175;-70
2023/12/17 01:05:52;;;;;;;15.67;12.07;;;;;;;3.57;70.27;98421.50;5022959;28;20436;-70
2023/12/17 01:08:17;;;;;;;14.47;11.07;;;;;;;3.63;70.19;98420.72;5026231;28;20187;-70
2023/12/17 01:10:43;;;;;;;14.60;10.33;;;;;;;3.52;71.10;98431.81;5026741;28;20873;-69
2023/12/17 01:13:08;;;;;;;11.87;9.07;;;;;;;2.59;72.77;98423.19;5024608;28;20182;-69
2023/12/17 01:15:34;;;;;;;13.20;9.87;;;;;;;3.03;71.70;98424.91;5026340;28;20171;-71
2023/12/17 01:17:59;;;;;;;12.90;11.37;;;;;;;2.61;72.32;98428.41;5019336;28;20666;-71
2023/12/17 01:20:24;;;;;;;9.97;9.10;;;;;;;3.03;71.76;98432.69;5025992;28;20244;-70
2023/12/17 01:22:50;;;;;;;15.63;10.80;;;;;;;3.18;70.58;98428.63;5024442;28;20215;-69
2023/12/17 01:25:15;;;;;;;11.27;8.73;;;;;;;2.33;73.73;98433.00;5021977;28;20663;-69
2023/12/17 01:27:40;;;;;;;11.87;10.27;;;;;;;2.61;73.63;98434.44;5020366;28;20189;-69
2023/12/17 01:30:06;;;;;;;14.17;10.00;;;;;;;2.58;73.18;98434.41;5019355;28;20258;-70
2023/12/17 01:32:32;;;;;;;11.40;10.20;;;;;;;2.72;72.42;98438.13;5025040;28;20167;-71
2023/12/17 01:34:57;;;;;;;10.77;9.50;;;;;;;2.62;73.17;98432.72;5024814;28;20441;-70
2023/12/17 01:37:23;;;;;;;11.23;10.10;;;;;;;2.66;73.24;98435.41;5025428;28;20187;-71
2023/12/17 01:39:48;;;;;;;11.53;9.70;;;;;;;2.96;72.21;98439.47;5025160;28;20250;-70
2023/12/17 01:42:13;;;;;;;12.93;10.27;;;;;;;2.95;72.14;98448.06;5018375;28;20214;-70
2023/12/17 01:44:40;;;;;;;10.63;9.40;;;;;;;3.28;70.89;98441.75;5024800;28;20176;-70
2023/12/17 01:47:06;;;;;;;10.00;8.97;;;;;;;2.83;72.49;98443.53;5025319;28;20195;-70
2023/12/17 01:49:32;;;;;;;12.07;10.00;;;;;;;2.71;72.52;98448.47;5024792;28;20426;-71
2023/12/17 01:51:57;;;;;;;12.47;10.40;;;;;;;2.82;71.71;98453.88;5021430;28;20195;-70
2023/12/17 01:54:23;;;;;;;12.77;10.20;;;;;;;2.36;73.39;98456.38;5023273;28;20245;-70
2023/12/17 01:56:48;;;;;;;11.80;9.50;;;;;;;2.01;74.13;98465.94;5024557;28;20180;-70
2023/12/17 01:59:14;;;;;;;14.67;10.23;;;;;;;2.30;74.15;98471.81;5024335;28;20211;-71
2023/12/17 02:01:42;;;;;;;14.57;11.03;;;;;;;2.15;74.68;98476.63;5023424;28;20318;-70
2023/12/17 02:04:07;;;;;;;13.37;9.73;;;;;;;2.50;73.92;98460.16;5024002;28;21019;-71
2023/12/17 02:06:33;;;;;;;12.17;10.90;;;;;;;2.74;72.96;98464.97;5034711;28;20434;-69
2023/12/17 02:08:58;;;;;;;15.20;11.43;;;;;;;3.11;72.02;98477.78;5031939;28;20271;-70
2023/12/17 02:11:23;;;;;;;13.10;10.40;;;;;;;3.17;71.12;98485.69;5015687;28;20553;-69
2023/12/17 02:13:49;;;;;;;16.03;10.90;;;;;;;3.34;70.68;98471.28;5023813;28;20179;-69
2023/12/17 02:16:14;;;;;;;14.23;11.57;;;;;;;3.33;71.03;98463.47;5023370;28;20188;-69
2023/12/17 02:18:40;;;;;;;15.23;10.40;;;;;;;3.35;70.06;98469.56;5024651;28;20261;-69
2023/12/17 02:21:05;;;;;;;15.50;9.43;;;;;;;3.50;70.34;98459.47;5021225;28;20250;-69
2023/12/17 02:23:31;;;;;;;14.07;10.00;;;;;;;3.78;69.01;98459.91;5026863;28;20214;-70
2023/12/17 02:25:56;;;;;;;13.60;10.10;;;;;;;3.79;69.23;98456.47;5027656;28;20182;-70
2023/12/17 02:28:21;;;;;;;13.33;11.00;;;;;;;2.88;70.49;98462.66;5026475;28;20810;-70
2023/12/17 02:30:47;;;;;;;14.90;11.17;;;;;;;2.44;72.92;98459.16;5026335;28;20211;-70
2023/12/17 02:33:12;;;;;;;14.50;11.37;;;;;;;2.16;74.75;98455.94;5025849;28;20192;-69
2023/12/17 02:35:37;;;;;;;14.87;12.63;;;;;;;2.11;74.53;98465.34;5026261;28;20218;-70
2023/12/17 02:38:03;;;;;;;15.83;11.27;;;;;;;2.00;74.76;98459.03;5020529;28;20837;-69
2023/12/17 02:40:28;;;;;;;12.07;10.07;;;;;;;2.30;74.44;98462.31;5024716;28;20272;-71
2023/12/17 02:42:54;;;;;;;22.30;11.47;;;;;;;2.75;72.71;98450.28;5021762;28;20278;-69
2023/12/17 02:45:19;;;;;;;16.53;12.30;;;;;;;2.92;71.93;98448.03;5026030;28;20257;-70
2023/12/17 02:47:44;;;;;;;13.00;11.70;;;;;;;3.02;72.16;98443.88;5025274;28;21082;-71
2023/12/17 02:50:10;;;;;;;12.03;10.80;;;;;;;2.96;72.45;98465.41;5024425;28;20194;-69
2023/12/17 02:52:36;;;;;;;12.80;10.77;;;;;;;3.14;72.01;98459.66;5008052;28;20270;-70
2023/12/17 02:55:01;;;;;;;17.17;11.20;;;;;;;3.16;71.84;98453.66;5025983;28;20211;-69
2023/12/17 02:57:27;;;;;;;12.97;10.13;;;;;;;2.57;72.48;98452.50;5032778;28;20677;-68
2023/12/17 02:59:55;;;;;;;15.40;12.20;;;;;;;2.02;74.58;98457.34;5032971;28;20298;-71
2023/12/17 03:02:20;;;;;;;12.80;11.30;;;;;;;1.44;76.93;98459.41;5033631;28;20596;-71
2023/12/17 03:04:47;;;;;;;15.73;12.13;;;;;;;1.73;76.85;98451.50;5032952;28;20432;-70
2023/12/17 03:07:12;;;;;;;15.30;11.93;;;;;;;2.40;74.00;98449.56;5034991;28;20175;-70
2023/12/17 03:09:38;;;;;;;18.27;11.50;;;;;;;2.70;72.33;98444.13;5040199;28;20874;-70
2023/12/17 03:12:03;;;;;;;14.97;11.50;;;;;;;2.54;73.14;98450.72;5042560;28;20222;-70
2023/12/17 03:14:31;;;;;;;14.13;11.53;;;;;;;2.71;72.52;98441.56;5043374;28;20650;-70
2023/12/17 03:16:56;;;;;;;15.40;11.47;;;;;;;3.00;71.22;98441.28;5034627;28;20189;-70
2023/12/17 03:19:22;;;;;;;15.97;12.90;;;;;;;2.91;71.25;98439.38;5030368;28;20462;-69
2023/12/17 03:21:47;;;;;;;14.67;11.17;;;;;;;3.02;71.02;98429.19;5029496;28;20288;-69
2023/12/17 03:24:13;;;;;;;19.10;11.10;;;;;;;2.78;72.52;98433.91;5028077;28;20198;-71
2023/12/17 03:26:39;;;;;;;18.27;12.17;;;;;;;3.25;70.38;98431.34;5029222;28;20240;-70
2023/12/17 03:29:04;;;;;;;16.73;10.90;;;;;;;2.95;70.45;98428.22;5029270;28;20438;-70
2023/12/17 03:31:30;;;;;;;14.90;11.23;;;;;;;2.71;71.67;98428.59;5025487;28;20207;-69
2023/12/17 03:33:55;;;;;;;14.80;11.23;;;;;;;2.05;74.54;98434.09;5028807;28;20194;-70
2023/12/17 03:36:20;;;;;;;19.20;11.80;;;;;;;2.32;73.52;98436.44;5027613;28;20181;-69
2023/12/17 03:38:46;;;;;;;20.00;13.33;;;;;;;2.43;72.97;98428.88;5028460;28;20301;-69
2023/12/17 03:41:25;;;;;;;15.50;11.47;;;;;;;2.20;72.82;98434.47;5028073;28;20332;-69
2023/12/17 03:43:53;;;;;;;13.43;10.80;;;;;;;2.39;72.29;98427.97;5026910;28;20515;-70
2023/12/17 03:46:23;;;;;;;13.93;11.00;;;;;;;2.52;71.58;98426.50;5028603;28;20430;-70
2023/12/17 03:48:49;;;;;;;14.83;10.70;;;;;;;2.33;72.51;98436.47;5035228;28;20436;-71
2023/12/17 03:51:15;;;;;;;12.03;10.77;;;;;;;2.17;73.04;98438.69;5028431;28;20588;-71
2023/12/17 03:53:40;;;;;;;15.77;12.10;;;;;;;2.22;72.66;98437.06;5020278;28;20249;-69
2023/12/17 03:56:16;;;;;;;23.53;12.80;;;;;;;2.21;71.80;98436.19;5022380;28;20718;-70
2023/12/17 03:58:42;;;;;;;15.10;11.53;;;;;;;2.16;72.52;98435.22;5025741;28;20570;-69
2023/12/17 04:01:08;;;;;;;15.87;11.47;;;;;;;2.46;71.51;98428.97;5028474;28;21376;-70
2023/12/17 04:03:34;;;;;;;14.37;12.27;;;;;;;2.48;71.38;98424.66;5024803;28;20429;-69
2023/12/17 04:06:02;;;;;;;14.10;10.17;;;;;;;2.59;71.20;98433.53;5016282;28;20795;-69
2023/12/17 04:08:27;;;;;;;15.80;11.10;;;;;;;2.88;70.47;98428.94;5027788;28;20437;-70
2023/12/17 04:10:53;;;;;;;16.60;9.47;;;;;;;2.87;69.96;98431.50;5028569;28;20440;-68
2023/12/17 04:13:18;;;;;;;9.83;8.50;;;;;;;2.85;70.25;98428.88;5028364;28;20626;-70
2023/12/17 04:15:44;;;;;;;11.60;8.47;;;;;;;2.78;70.21;98431.31;5028808;28;20736;-70
2023/12/17 04:18:09;;;;;;;13.43;8.80;;;;;;;2.86;70.19;98430.63;5028111;28;20935;-71
2023/12/17 04:20:35;;;;;;;10.00;8.40;;;;;;;2.72;70.52;98434.69;5022805;28;20222;-70
2023/12/17 04:23:00;;;;;;;9.47;8.53;;;;;;;2.71;70.77;98431.19;5026686;28;20191;-71
2023/12/17 04:25:25;;;;;;;13.43;9.13;;;;;;;2.49;70.85;98429.91;5027885;28;20187;-71
2023/12/17 04:27:51;;;;;;;11.77;9.63;;;;;;;2.67;70.68;98436.28;5028558;28;20187;-71
2023/12/17 04:30:17;;;;;;;10.67;9.37;;;;;;;2.67;70.64;98420.72;5027623;28;20269;-68
2023/12/17 04:32:42;;;;;;;13.70;10.27;;;;;;;2.58;71.10;98413.66;5021741;28;20182;-71
2023/12/17 04:35:08;;;;;;;11.57;9.30;;;;;;;2.54;71.33;98415.31;5027454;28;20187;-71
2023/12/17 04:37:33;;;;;;;9.50;8.57;;;;;;;2.62;70.86;98422.34;5028508;28;20167;-71
2023/12/17 04:39:59;;;;;;;11.63;9.20;;;;;;;2.58;71.26;98418.84;5023178;28;20469;-71
2023/12/17 04:42:25;;;;;;;11.23;10.07;;;;;;;2.59;71.46;98424.91;5026770;28;21000;-70
2023/12/17 04:44:50;;;;;;;13.90;10.30;;;;;;;2.71;70.99;98425.13;5026749;28;20183;-70
2023/12/17 04:47:16;;;;;;;15.27;10.10;;;;;;;2.79;70.94;98425.28;5028178;28;20445;-71
2023/12/17 04:49:41;;;;;;;14.20;10.50;;;;;;;2.91;70.64;98423.81;5027225;28;20183;-71
2023/12/17 04:52:07;;;;;;;12.50;10.47;;;;;;;2.85;70.54;98426.28;5028305;28;20206;-70
2023/12/17 04:54:32;;;;;;;15.47;12.07;;;;;;;2.70;71.22;98426.88;5023960;28;20183;-69
2023/12/17 04:56:57;;;;;;;13.60;9.80;;;;;;;2.71;71.81;98425.13;5019343;28;20184;-70
2023/12/17 04:59:24;;;;;;;12.17;10.33;;;;;;;2.68;71.94;98414.72;5027259;28;20555;-69
2023/12/17 05:01:49;;;;;;;13.30;10.90;;;;;;;2.77;71.42;98414.91;5024629;28;20195;-71
2023/12/17 05:04:16;;;;;;;15.87;11.23;;;;;;;2.64;71.86;98416.34;5027843;28;20463;-72
2023/12/17 05:06:41;;;;;;;16.40;12.60;;;;;;;2.62;72.35;98415.47;5027431;28;20936;-69
2023/12/17 05:09:07;;;;;;;19.70;12.03;;;;;;;2.55;72.89;98413.59;5026796;28;20430;-70
2023/12/17 05:11:33;;;;;;;16.03;12.50;;;;;;;2.72;72.17;98413.94;5027650;28;20227;-70
2023/12/17 05:13:58;;;;;;;18.30;13.07;;;;;;;2.73;72.63;98416.53;5020020;28;20461;-71
2023/12/17 05:16:23;;;;;;;16.03;12.50;;;;;;;2.74;72.34;98418.31;5024963;28;20187;-70
2023/12/17 05:18:49;;;;;;;19.87;11.53;;;;;;;2.77;72.13;98416.63;5027072;28;20301;-70
2023/12/17 05:21:14;;;;;;;25.50;14.70;;;;;;;2.69;72.64;98416.44;5025644;28;20632;-70
2023/12/17 05:23:39;;;;;;;17.10;12.23;;;;;;;2.89;72.08;98411.66;5025689;28;20187;-70
2023/12/17 05:26:05;;;;;;;22.17;13.10;;;;;;;2.78;72.21;98405.41;5022974;28;20226;-70
2023/12/17 05:28:30;;;;;;;20.80;11.13;;;;;;;2.70;72.54;98407.84;5017906;28;20214;-70
2023/12/17 05:30:55;;;;;;;17.77;11.10;;;;;;;2.59;73.41;98407.63;5026448;28;20207;-70
2023/12/17 05:33:21;;;;;;;23.43;11.60;;;;;;;2.64;72.88;98403.41;5019148;28;20631;-71
2023/12/17 05:35:46;;;;;;;17.60;12.00;;;;;;;2.60;72.84;98396.44;5026544;28;20180;-70
2023/12/17 05:38:11;;;;;;;17.00;12.03;;;;;;;2.79;72.27;98399.34;5019973;28;20184;-70
2023/12/17 05:40:37;;;;;;;17.67;11.27;;;;;;;2.88;71.76;98397.84;5025591;28;20893;-71
2023/12/17 05:43:05;;;;;;;19.50;11.60;;;;;;;2.90;71.78;98397.84;5025785;28;20188;-70
2023/12/17 05:45:32;;;;;;;13.87;11.10;;;;;;;2.81;72.08;98397.66;5027075;28;20549;-70
2023/12/17 05:47:57;;;;;;;17.07;10.50;;;;;;;2.77;72.12;98398.47;5025609;28;20430;-71
2023/12/17 05:50:23;;;;;;;15.53;10.93;;;;;;;2.71;72.37;98394.03;5025698;28;22492;-70
2023/12/17 05:52:48;;;;;;;13.40;11.27;;;;;;;2.65;72.54;98387.03;5026743;28;20175;-70
2023/12/17 05:55:14;;;;;;;13.27;11.17;;;;;;;2.47;72.87;98386.66;5026947;28;20262;-70
2023/12/17 05:57:42;;;;;;;16.03;11.00;;;;;;;2.43;73.17;98384.84;5026292;28;20179;-70
2023/12/17 06:00:10;;;;;;;15.43;10.80;;;;;;;2.35;73.46;98383.81;5026136;28;20219;-71
2023/12/17 06:02:36;;;;;;;17.53;11.10;;;;;;;2.28;73.83;98375.03;5023621;28;20445;-70
2023/12/17 06:05:01;;;;;;;15.03;11.17;;;;;;;2.41;73.41;98365.78;5026622;28;20449;-70
2023/12/17 06:07:26;;;;;;;18.10;11.13;;;;;;;2.52;73.00;98364.28;5026545;28;20183;-70
2023/12/17 06:09:52;;;;;;;14.60;10.47;;;;;;;2.60;72.25;98360.16;5025213;28;20194;-71
2023/12/17 06:12:17;;;;;;;22.60;12.43;;;;;;;2.51;73.15;98365.16;5026747;28;20350;-69
2023/12/17 06:14:43;;;;;;;15.60;12.07;;;;;;;2.39;73.21;98372.69;5026662;28;20242;-69
2023/12/17 06:17:08;;;;;;;15.40;11.17;;;;;;;2.37;72.80;98374.38;5026991;28;20199;-69
2023/12/17 06:19:33;;;;;;;16.93;11.03;;;;;;;2.44;72.95;98361.56;5025957;28;20261;-69
2023/12/17 06:22:01;;;;;;;17.07;11.27;;;;;;;2.36;72.96;98370.00;5025866;28;20621;-71
2023/12/17 06:24:26;;;;;;;13.50;10.20;;;;;;;2.41;73.28;98364.09;5025095;28;20176;-69
2023/12/17 06:26:53;;;;;;;16.80;10.97;;;;;;;2.59;72.36;98360.09;5022329;28;20433;-69
2023/12/17 06:29:19;;;;;;;12.60;9.83;;;;;;;2.52;72.22;98353.91;5021470;28;20647;-70
2023/12/17 06:31:45;;;;;;;13.37;10.40;;;;;;;2.38;72.67;98365.72;5024092;28;20438;-72
2023/12/17 06:34:10;;;;;;;16.17;10.87;;;;;;;2.37;72.67;98359.69;5027136;28;20422;-71
2023/12/17 06:36:36;;;;;;;14.80;11.07;;;;;;;2.48;71.94;98357.28;5022578;28;20184;-71
2023/12/17 06:39:01;;;;;;;16.07;10.80;;;;;;;2.43;71.95;98359.78;5027095;28;20272;-70
2023/12/17 06:41:26;;;;;;;18.03;11.67;;;;;;;2.40;72.32;98361.47;5028129;28;20852;-70
2023/12/17 06:43:52;;;;;;;15.10;10.80;;;;;;;2.43;72.00;98359.78;5027698;28;20190;-70
2023/12/17 06:46:18;;;;;;;13.40;11.20;;;;;;;2.43;71.85;98362.38;5025775;28;20202;-69
2023/12/17 06:48:43;;;;;;;18.03;11.70;;;;;;;2.52;71.48;98359.97;5026063;28;20187;-70
2023/12/17 06:51:10;;;;;;;16.50;10.40;;;;;;;2.37;71.83;98371.78;5022524;28;20286;-70
2023/12/17 06:53:35;;;;;;;13.90;10.67;;;;;;;2.42;71.61;98372.75;5026820;28;20206;-71
2023/12/17 06:56:01;;;;;;;15.67;11.30;;;;;;;2.32;71.99;98382.03;5027322;28;20431;-70
2023/12/17 06:58:26;;;;;;;12.30;10.20;;;;;;;1.76;73.68;98382.56;5026014;28;20213;-71
2023/12/17 07:00:52;;;;;;;18.20;11.60;;;;;;;1.30;75.20;98388.34;5031582;28;20258;-71
2023/12/17 07:03:18;;;;;;;21.60;12.50;;;;;;;0.83;77.07;98397.53;5030552;28;20237;-70
2023/12/17 07:05:44;;;;;;;15.27;10.27;;;;;;;1.12;76.36;98393.94;5025896;28;20673;-71
2023/12/17 07:08:10;;;;;;;22.23;12.17;;;;;;;1.11;76.38;98398.25;5026203;28;20924;-69
2023/12/17 07:10:35;;;;;;;19.07;11.77;;;;;;;0.76;77.92;98395.63;5025742;28;20461;-69
2023/12/17 07:13:00;;;;;;;17.87;11.63;;;;;;;0.44;79.77;98405.06;5023713;28;20233;-68
2023/12/17 07:15:26;;;;;;;21.27;12.07;;;;;;;0.46;79.38;98407.69;5026417;28;20190;-69
2023/12/17 07:17:51;;;;;;;15.70;11.10;;;;;;;0.76;78.34;98408.53;5026459;28;20639;-69
2023/12/17 07:20:17;;;;;;;13.10;11.70;;;;;;;1.07;77.93;98411.06;5024592;28;20211;-69
2023/12/17 07:22:42;;;;;;;20.73;12.53;;;;;;;1.42;75.29;98407.66;5025659;28;20680;-70
2023/12/17 07:25:09;;;;;;;14.80;11.33;;;;;;;1.16;75.58;98407.00;5025423;28;20261;-69
2023/12/17 07:27:34;;;;;;;16.03;11.10;;;;;;;0.98;76.42;98411.69;5025005;28;20304;-70
2023/12/17 07:30:00;;;;;;;15.03;11.60;;;;;;;1.25;75.91;98399.47;5026389;28;21197;-70
2023/12/17 07:32:25;;;;;;;15.37;10.70;;;;;;;1.55;74.47;98400.16;5025180;28;20206;-69
2023/12/17 07:34:50;;;;;;;11.80;10.43;;;;;;;1.58;73.76;98395.06;5024537;28;20250;-70
2023/12/17 07:37:16;;;;;;;13.70;10.60;;;;;;;1.72;73.40;98398.84;5018554;28;20335;-69
2023/12/17 07:39:42;;;;;;;15.13;10.20;;;;;;;1.69;73.03;98401.38;5024930;28;20678;-69
2023/12/17 07:42:07;;;;;;;17.30;11.17;;;;;;;1.75;73.00;98390.28;5023685;28;20565;-70
2023/12/17 07:44:32;;;;;;;13.80;11.47;;;;;;;1.94;72.00;98381.19;5024501;28;20172;-71
2023/12/17 07:46:58;;;;;;;13.27;10.80;;;;;;;1.98;71.97;98385.63;5018655;28;20184;-70
2023/12/17 07:49:24;;;;;;;19.87;10.50;;;;;;;2.23;70.93;98376.66;5025169;28;20180;-70
2023/12/17 07:51:49;;;;;;;24.67;11.68;;;;;;;2.37;70.68;98370.06;5019080;28;21074;-69
2023/12/17 07:54:15;;;;;;;18.43;10.53;;;;;;;3.09;68.51;98368.78;5024233;28;20214;-71
2023/12/17 07:56:40;;;;;;;17.70;9.13;;;;;;;3.94;64.93;98370.97;5026348;28;20183;-69
2023/12/17 07:59:06;;;;;;;9.07;8.17;;;;;;;4.90;61.32;98369.56;5027719;28;20195;-69
2023/12/17 08:01:32;;;;;;;9.90;8.90;;;;;;;5.52;59.02;98361.44;5020759;28;20199;-69
2023/12/17 08:03:57;;;;;;;9.80;8.00;;;;;;;5.97;57.66;98360.03;5022836;28;20263;-70
2023/12/17 08:06:26;;;;;;;14.10;8.83;;;;;;;5.94;56.97;98360.00;5028061;28;20465;-71
2023/12/17 08:08:53;;;;;;;9.83;8.03;;;;;;;5.14;59.10;98371.53;5028944;28;20190;-73
2023/12/17 08:11:18;;;;;;;13.33;8.93;;;;;;;4.61;60.79;98370.13;5027852;28;20434;-71
2023/12/17 08:13:44;;;;;;;20.63;9.37;;;;;;;4.33;61.43;98372.38;5028954;28;20430;-70
2023/12/17 08:16:10;;;;;;;11.83;10.00;;;;;;;3.92;63.21;98374.41;5024935;28;20237;-72
2023/12/17 08:18:35;;;;;;;13.40;8.60;;;;;;;3.77;64.15;98368.16;5028814;28;20234;-71
2023/12/17 08:21:01;;;;;;;17.27;9.30;;;;;;;4.13;63.60;98373.84;5027938;28;20429;-71
2023/12/17 08:23:27;;;;;;;31.43;12.57;;;;;;;4.47;61.80;98371.69;5028050;28;20494;-71
2023/12/17 08:25:53;;;;;;;26.50;10.20;;;;;;;5.11;60.48;98366.28;5026806;28;20438;-70
2023/12/17 08:28:22;;;;;;;15.00;9.53;;;;;;;5.59;58.62;98363.22;5026214;28;20258;-71
2023/12/17 08:30:48;;;;;;;12.67;8.30;;;;;;;5.94;57.18;98365.22;5029755;28;20453;-69
2023/12/17 08:33:14;;;;;;;10.73;8.00;;;;;;;5.55;58.12;98366.69;5034517;28;20525;-69
2023/12/17 08:35:41;;;;;;;13.40;9.07;;;;;;;6.31;56.78;98368.03;5048343;28;20437;-69
2023/12/17 08:38:07;;;;;;;12.87;9.73;;;;;;;6.83;54.96;98365.63;5042111;28;20444;-68
2023/12/17 08:40:33;;;;;;;10.90;9.07;;;;;;;7.01;53.79;98370.00;5041696;28;20466;-66
2023/12/17 08:43:00;;;;;;;13.60;10.30;;;;;;;7.80;51.25;98371.78;5031460;28;20209;-66
2023/12/17 08:45:25;;;;;;;9.90;8.10;;;;;;;8.17;50.60;98370.81;5034705;28;21270;-68
2023/12/17 08:47:51;;;;;;;11.43;9.17;;;;;;;8.57;49.53;98371.56;5033853;28;20446;-68
2023/12/17 08:50:16;;;;;;;14.87;8.87;;;;;;;9.02;48.66;98371.34;5033072;28;20187;-69
2023/12/17 08:52:41;;;;;;;13.13;10.07;;;;;;;9.48;47.16;98368.44;5028888;28;20346;-70
2023/12/17 08:55:07;;;;;;;12.80;10.13;;;;;;;9.69;46.87;98362.13;5028982;28;20184;-68
2023/12/17 08:57:32;;;;;;;13.93;9.37;;;;;;;10.02;45.29;98358.31;5026655;28;20195;-68
2023/12/17 08:59:57;;;;;;;12.87;10.40;;;;;;;10.37;45.16;98355.34;5024616;28;20646;-71
2023/12/17 09:02:23;;;;;;;27.87;11.73;;;;;;;10.62;44.67;98356.78;5023711;28;20191;-69
2023/12/17 09:04:51;;;;;;;11.77;9.53;;;;;;;10.36;44.85;98352.72;5029338;28;20186;-71
2023/12/17 09:07:17;;;;;;;41.27;11.93;;;;;;;10.96;44.46;98344.97;5024576;28;20618;-69
2023/12/17 09:09:42;;;;;;;11.93;10.43;;;;;;;11.44;42.57;98349.50;5013886;28;20427;-67
2023/12/17 09:12:08;;;;;;;18.50;10.53;;;;;;;11.56;42.16;98335.28;5028638;28;20203;-69
2023/12/17 09:14:35;;;;;;;16.73;11.77;;;;;;;11.91;41.10;98334.69;5029558;28;20187;-70
2023/12/17 09:17:00;;;;;;;30.83;12.60;;;;;;;11.85;41.89;98327.72;5026465;28;20182;-70
2023/12/17 09:19:25;;;;;;;17.87;10.70;;;;;;;12.03;40.86;98338.84;5026836;28;20493;-69
2023/12/17 09:21:51;;;;;;;12.07;10.97;;;;;;;11.80;41.76;98333.97;5028105;28;20356;-70
2023/12/17 09:24:16;;;;;;;11.50;10.40;;;;;;;11.85;42.41;98332.13;5027106;28;20209;-71
2023/12/17 09:26:42;;;;;;;14.97;10.07;;;;;;;11.71;42.55;98332.38;5027474;28;20183;-69
2023/12/17 09:29:07;;;;;;;11.57;10.40;;;;;;;11.77;42.18;98334.03;5023974;28;20179;-68
2023/12/17 09:31:32;;;;;;;20.20;11.27;;;;;;;11.62;42.69;98343.03;5028444;28;20215;-68
2023/12/17 09:33:58;;;;;;;10.53;9.53;;;;;;;11.52;42.73;98342.31;5027116;28;20254;-68
2023/12/17 09:36:25;;;;;;;12.57;10.87;;;;;;;11.30;43.58;98346.22;5026694;28;20230;-68
2023/12/17 09:38:50;;;;;;;10.77;9.77;;;;;;;10.78;44.52;98351.31;5026912;28;20261;-70
2023/12/17 09:41:15;;;;;;;13.30;9.50;;;;;;;10.87;44.68;98341.59;5026564;28;20446;-70
2023/12/17 09:43:43;;;;;;;106.30;15.77;;;;;;;10.68;45.59;98340.97;5022859;28;21803;-68
2023/12/17 09:46:09;;;;;;;44.17;14.13;;;;;;;10.54;46.18;98339.38;5027154;28;20199;-68
2023/12/17 09:48:34;;;;;;;24.40;11.67;;;;;;;10.23;46.66;98343.22;5020464;28;20536;-68
2023/12/17 09:51:01;;;;;;;46.30;12.60;;;;;;;10.03;47.26;98343.44;5025202;28;20442;-68
2023/12/17 09:53:30;;;;;;;32.70;11.60;;;;;;;9.83;47.53;98343.66;5025480;28;20183;-68
2023/12/17 09:55:55;;;;;;;30.20;11.23;;;;;;;9.67;48.29;98354.28;5027418;28;20456;-67
2023/12/17 09:58:22;;;;;;;20.63;11.30;;;;;;;9.70;48.57;98350.75;5026091;28;20959;-70
2023/12/17 10:00:47;;;;;;;15.47;10.67;;;;;;;9.68;49.17;98347.28;5028220;28;20203;-67
2023/12/17 10:03:14;;;;;;;18.87;10.10;;;;;;;9.58;49.47;98348.25;5009849;28;20762;-69
2023/12/17 10:05:40;;;;;;;16.37;10.97;;;;;;;9.32;49.56;98342.31;5026988;28;20547;-70
2023/12/17 10:08:06;;;;;;;12.77;9.73;;;;;;;9.38;49.95;98340.53;5026974;28;20448;-73
2023/12/17 10:10:31;;;;;;;38.23;12.97;;;;;;;9.46;49.81;98336.13;5025967;28;20201;-70
2023/12/17 10:12:57;;;;;;;16.33;10.30;;;;;;;9.53;50.36;98333.44;5024064;28;20175;-70
2023/12/17 10:15:23;;;;;;;15.57;10.10;;;;;;;9.58;50.29;98329.91;5024684;28;20195;-70
2023/12/17 10:17:48;;;;;;;20.10;10.27;;;;;;;9.54;50.68;98327.31;5021742;28;20179;-68
2023/12/17 10:20:18;;;;;;;13.40;10.33;;;;;;;9.63;50.07;98335.97;5024855;28;20281;-69
2023/12/17 10:22:58;;;;;;;16.13;10.50;;;;;;;9.55;50.63;98325.56;5025801;28;20183;-70
2023/12/17 10:25:24;;;;;;;20.13;11.03;;;;;;;9.18;51.13;98328.47;5025677;28;20445;-70
2023/12/17 10:27:52;;;;;;;14.30;10.10;;;;;;;8.87;52.35;98326.06;5024886;28;20500;-70
2023/12/17 10:30:18;;;;;;;21.23;11.20;;;;;;;8.72;52.54;98315.69;5025448;28;20217;-70
2023/12/17 10:32:43;;;;;;;21.30;10.57;;;;;;;8.73;53.13;98313.94;5024425;28;20430;-69
2023/12/17 10:35:10;;;;;;;29.57;12.03;;;;;;;9.28;51.80;98305.69;5006122;28;20333;-71
2023/12/17 10:37:37;;;;;;;35.07;11.87;;;;;;;9.55;51.19;98312.44;5022760;28;20254;-70
2023/12/17 10:40:04;;;;;;;44.67;13.80;;;;;;;9.66;50.84;98300.13;5024768;28;20461;-70
2023/12/17 10:42:31;;;;;;;15.40;10.27;;;;;;;9.70;50.39;98299.19;5019786;28;20462;-71
2023/12/17 10:44:57;;;;;;;38.47;13.57;;;;;;;9.67;51.30;98291.34;5023235;28;22388;-69
2023/12/17 10:47:24;;;;;;;25.67;12.30;;;;;;;9.88;49.80;98295.53;5026924;28;20516;-69
2023/12/17 10:49:53;;;;;;;34.80;13.47;;;;;;;9.94;49.83;98287.59;5023452;28;20426;-69
2023/12/17 10:52:19;;;;;;;25.63;13.67;;;;;;;9.99;50.07;98297.16;5025915;28;20452;-70
2023/12/17 10:54:45;;;;;;;33.87;12.23;;;;;;;10.05;49.84;98283.97;5024766;28;20438;-69
2023/12/17 10:57:19;;;;;;;16.10;10.60;;;;;;;10.17;49.29;98283.81;5027973;28;20504;-71
2023/12/17 10:59:48;;;;;;;14.10;10.33;;;;;;;10.41;48.92;98276.56;5028508;28;20270;-71
2023/12/17 11:02:16;;;;;;;18.90;10.20;;;;;;;10.22;49.46;98281.16;5030418;28;20458;-69
2023/12/17 11:04:45;;;;;;;13.27;10.90;;;;;;;10.26;49.16;98267.97;5021510;28;20524;-70
2023/12/17 11:07:16;;;;;;;12.50;9.90;;;;;;;10.30;49.33;98268.81;5021121;28;20434;-69
2023/12/17 11:09:41;;;;;;;13.57;9.73;;;;;;;10.34;49.49;98268.75;5020655;28;20520;-68
2023/12/17 11:12:07;;;;;;;185.33;25.60;;;;;;;10.35;48.85;98273.13;5021996;28;20503;-68
2023/12/17 11:14:33;;;;;;;121.83;21.60;;;;;;;9.99;50.17;98265.66;5024162;28;20185;-69
2023/12/17 11:16:59;;;;;;;93.43;17.03;;;;;;;9.37;51.32;98274.16;5021354;28;20747;-67
2023/12/17 11:19:25;;;;;;;48.77;12.13;;;;;;;10.00;50.92;98273.53;5015280;28;20632;-68